createdAt,value
2018-12-31T00:00:12.842Z,3.0
2018-12-31T00:01:13.073Z,3.2
2018-12-31T00:02:12.804Z,3.1
2018-12-31T00:03:12.519Z,2.9
2018-12-31T00:04:12.594Z,2.9
2018-12-31T00:05:12.818Z,2.9
2018-12-31T00:06:12.765Z,3.0
2018-12-31T00:07:12.724Z,2.9
2018-12-31T00:08:13.035Z,3.0
2018-12-31T00:09:12.765Z,2.9
2018-12-31T00:10:12.822Z,2.9
2018-12-31T00:11:12.810Z,3.0
2018-12-31T00:12:13.065Z,2.6
2018-12-31T00:13:12.826Z,3.0
2018-12-31T00:14:12.576Z,2.8
2018-12-31T00:15:12.815Z,2.7
2018-12-31T00:16:13.527Z,2.8
2018-12-31T00:17:12.855Z,2.9
2018-12-31T00:18:12.753Z,2.8
2018-12-31T00:19:13.021Z,2.9
2018-12-31T00:20:13.370Z,3.0
2018-12-31T00:21:12.752Z,2.7
2018-12-31T00:22:12.829Z,2.7
2018-12-31T00:23:12.764Z,2.6
2018-12-31T00:24:13.039Z,2.8
2018-12-31T00:25:12.621Z,2.9
2018-12-31T00:26:12.860Z,2.8
2018-12-31T00:27:13.078Z,2.8
2018-12-31T00:28:12.651Z,2.9
2018-12-31T00:29:12.550Z,3.2
2018-12-31T00:30:13.288Z,2.6
2018-12-31T00:31:12.904Z,2.9
2018-12-31T00:32:14.005Z,3.0
2018-12-31T00:33:12.799Z,2.9
2018-12-31T00:34:13.071Z,3.0
2018-12-31T00:35:12.884Z,3.0
2018-12-31T00:36:12.802Z,2.6
2018-12-31T00:37:12.799Z,2.8
2018-12-31T00:38:12.683Z,2.7
2018-12-31T00:39:12.614Z,2.8
2018-12-31T00:40:13.655Z,2.7
2018-12-31T00:41:12.574Z,2.9
2018-12-31T00:42:12.574Z,3.1
2018-12-31T00:43:12.837Z,3.1
2018-12-31T00:44:13.071Z,2.8
2018-12-31T00:45:12.611Z,2.9
2018-12-31T00:46:12.774Z,2.7
2018-12-31T00:47:12.778Z,2.7
2018-12-31T00:48:12.594Z,2.6
2018-12-31T00:49:13.024Z,2.7
2018-12-31T00:50:12.521Z,2.7
2018-12-31T00:51:13.359Z,2.8
2018-12-31T00:52:13.006Z,2.7
2018-12-31T00:53:12.785Z,2.8
2018-12-31T00:54:13.076Z,2.6
2018-12-31T00:55:12.579Z,2.8
2018-12-31T00:56:12.588Z,2.9
2018-12-31T00:57:12.881Z,2.9
2018-12-31T00:58:12.596Z,2.5
2018-12-31T00:59:12.610Z,2.6
2018-12-31T01:00:13.064Z,2.9
2018-12-31T01:01:12.609Z,2.6
2018-12-31T01:02:13.069Z,2.8
2018-12-31T01:03:12.606Z,2.9
2018-12-31T01:04:12.803Z,2.9
2018-12-31T01:05:12.845Z,2.6
2018-12-31T01:06:12.875Z,2.6
2018-12-31T01:07:13.060Z,2.9
2018-12-31T01:08:13.041Z,2.9
2018-12-31T01:09:12.876Z,2.7
2018-12-31T01:10:12.673Z,2.8
2018-12-31T01:11:12.978Z,2.7
2018-12-31T01:12:13.054Z,2.7
2018-12-31T01:13:13.067Z,2.6
2018-12-31T01:14:12.852Z,2.7
2018-12-31T01:15:12.635Z,2.8
2018-12-31T01:16:13.081Z,2.6
2018-12-31T01:17:12.648Z,2.9
2018-12-31T01:18:13.073Z,2.7
2018-12-31T01:19:12.797Z,2.6
2018-12-31T01:20:13.088Z,2.8
2018-12-31T01:21:12.846Z,2.7
2018-12-31T01:22:12.850Z,2.8
2018-12-31T01:23:12.686Z,2.7
2018-12-31T01:24:12.837Z,2.8
2018-12-31T01:25:12.879Z,2.5
2018-12-31T01:26:12.886Z,2.9
2018-12-31T01:27:13.101Z,2.7
2018-12-31T01:28:13.077Z,2.9
2018-12-31T01:29:12.660Z,2.7
2018-12-31T01:30:12.679Z,2.6
2018-12-31T01:31:12.666Z,2.5
2018-12-31T01:32:12.615Z,2.7
2018-12-31T01:33:13.089Z,2.9
2018-12-31T01:34:13.078Z,2.6
2018-12-31T01:35:13.143Z,2.6
2018-12-31T01:36:12.660Z,2.7
2018-12-31T01:37:12.874Z,3.0
2018-12-31T01:38:12.681Z,2.9
2018-12-31T01:39:12.802Z,2.6
2018-12-31T01:40:13.151Z,2.9
2018-12-31T01:41:12.839Z,2.5
2018-12-31T01:42:13.093Z,2.8
2018-12-31T01:43:13.183Z,2.6
2018-12-31T01:44:12.714Z,2.6
2018-12-31T01:45:12.927Z,2.6
2018-12-31T01:46:12.732Z,2.7
2018-12-31T01:47:13.121Z,2.8
2018-12-31T01:48:13.132Z,2.6
2018-12-31T01:49:12.881Z,2.6
2018-12-31T01:50:12.729Z,2.6
2018-12-31T01:51:13.175Z,2.5
2018-12-31T01:52:12.932Z,2.6
2018-12-31T01:53:13.142Z,2.5
2018-12-31T01:54:12.949Z,2.7
2018-12-31T01:55:12.711Z,2.6
2018-12-31T01:56:12.735Z,2.4
2018-12-31T01:57:12.914Z,2.6
2018-12-31T01:58:12.925Z,2.7
2018-12-31T01:59:13.103Z,2.6
2018-12-31T02:00:13.151Z,2.4
2018-12-31T02:01:12.919Z,2.6
2018-12-31T02:02:13.151Z,2.4
2018-12-31T02:03:12.894Z,2.6
2018-12-31T02:04:12.890Z,2.3
2018-12-31T02:05:12.923Z,2.4
2018-12-31T02:06:12.952Z,2.4
2018-12-31T02:07:13.194Z,2.5
2018-12-31T02:08:12.908Z,2.4
2018-12-31T02:09:12.702Z,2.4
2018-12-31T02:10:13.165Z,2.4
2018-12-31T02:11:12.948Z,2.3
2018-12-31T02:12:13.186Z,2.6
2018-12-31T02:13:13.195Z,2.4
2018-12-31T02:14:13.181Z,2.3
2018-12-31T02:15:13.250Z,2.2
2018-12-31T02:16:12.986Z,2.4
2018-12-31T02:17:12.955Z,2.6
2018-12-31T02:18:12.924Z,2.7
2018-12-31T02:19:12.938Z,2.4
2018-12-31T02:20:13.185Z,2.4
2018-12-31T02:21:13.247Z,2.4
2018-12-31T02:22:12.826Z,2.3
2018-12-31T02:23:13.059Z,2.3
2018-12-31T02:24:12.981Z,2.2
2018-12-31T02:25:13.057Z,2.3
2018-12-31T02:26:13.651Z,2.2
2018-12-31T02:27:12.838Z,2.2
2018-12-31T02:28:13.012Z,2.1
2018-12-31T02:29:13.060Z,2.3
2018-12-31T02:30:13.021Z,2.3
2018-12-31T02:31:13.041Z,2.2
2018-12-31T02:32:14.428Z,2.1
2018-12-31T02:33:13.039Z,2.1
2018-12-31T02:34:12.930Z,2.4
2018-12-31T02:35:13.220Z,2.2
2018-12-31T02:36:13.058Z,2.2
2018-12-31T02:37:13.238Z,2.2
2018-12-31T02:38:13.288Z,2.3
2018-12-31T02:39:12.784Z,2.3
2018-12-31T02:40:12.963Z,2.1
2018-12-31T02:41:13.253Z,2.2
2018-12-31T02:42:12.960Z,2.0
2018-12-31T02:43:12.795Z,2.2
2018-12-31T02:44:13.103Z,2.3
2018-12-31T02:45:13.008Z,2.0
2018-12-31T02:46:12.808Z,2.2
2018-12-31T02:47:12.837Z,2.0
2018-12-31T02:48:13.245Z,1.9
2018-12-31T02:49:13.010Z,2.1
2018-12-31T02:50:12.796Z,2.1
2018-12-31T02:51:12.806Z,2.1
2018-12-31T02:52:12.819Z,1.9
2018-12-31T02:53:13.238Z,2.1
2018-12-31T02:54:13.229Z,2.2
2018-12-31T02:55:13.017Z,2.1
2018-12-31T02:56:13.042Z,2.0
2018-12-31T02:57:13.266Z,2.0
2018-12-31T02:58:13.231Z,2.1
2018-12-31T02:59:13.238Z,2.0
2018-12-31T03:00:12.839Z,1.8
2018-12-31T03:01:13.415Z,2.1
2018-12-31T03:02:13.066Z,2.1
2018-12-31T03:03:12.856Z,2.0
2018-12-31T03:04:13.025Z,2.0
2018-12-31T03:05:13.015Z,1.9
2018-12-31T03:06:12.910Z,2.0
2018-12-31T03:07:13.067Z,1.9
2018-12-31T03:08:13.083Z,2.0
2018-12-31T03:09:13.287Z,2.1
2018-12-31T03:10:12.848Z,1.9
2018-12-31T03:11:12.865Z,1.9
2018-12-31T03:12:13.327Z,1.8
2018-12-31T03:13:13.321Z,1.6
2018-12-31T03:14:13.083Z,1.9
2018-12-31T03:15:13.138Z,1.8
2018-12-31T03:16:12.877Z,1.8
2018-12-31T03:17:12.898Z,2.0
2018-12-31T03:18:12.944Z,1.8
2018-12-31T03:19:13.093Z,1.8
2018-12-31T03:20:13.145Z,1.9
2018-12-31T03:21:13.068Z,1.9
2018-12-31T03:22:13.061Z,1.9
2018-12-31T03:23:13.092Z,1.8
2018-12-31T03:24:12.862Z,1.6
2018-12-31T03:25:13.377Z,1.7
2018-12-31T03:26:13.145Z,1.8
2018-12-31T03:27:13.122Z,1.7
2018-12-31T03:28:13.308Z,1.8
2018-12-31T03:29:13.360Z,1.9
2018-12-31T03:30:12.982Z,1.6
2018-12-31T03:31:13.152Z,1.6
2018-12-31T03:32:13.404Z,1.6
2018-12-31T03:33:13.407Z,1.5
2018-12-31T03:34:13.142Z,1.6
2018-12-31T03:35:13.120Z,1.7
2018-12-31T03:36:13.198Z,1.6
2018-12-31T03:37:13.189Z,1.7
2018-12-31T03:38:13.342Z,1.7
2018-12-31T03:39:13.371Z,1.7
2018-12-31T03:40:12.947Z,1.6
2018-12-31T03:41:12.923Z,1.6
2018-12-31T03:42:13.144Z,1.5
2018-12-31T03:43:13.384Z,1.6
2018-12-31T03:44:13.133Z,1.6
2018-12-31T03:45:12.909Z,1.5
2018-12-31T03:46:13.372Z,1.6
2018-12-31T03:47:12.933Z,1.7
2018-12-31T03:48:13.179Z,1.7
2018-12-31T03:49:13.128Z,1.5
2018-12-31T03:50:13.398Z,1.6
2018-12-31T03:51:13.164Z,1.6
2018-12-31T03:52:13.394Z,1.6
2018-12-31T03:53:13.165Z,1.5
2018-12-31T03:54:13.391Z,1.5
2018-12-31T03:55:13.235Z,1.6
2018-12-31T03:56:13.177Z,1.5
2018-12-31T03:57:13.239Z,1.5
2018-12-31T03:58:13.041Z,1.4
2018-12-31T03:59:13.398Z,1.6
2018-12-31T04:00:13.198Z,1.4
2018-12-31T04:01:13.247Z,1.5
2018-12-31T04:02:13.077Z,1.6
2018-12-31T04:03:13.389Z,1.4
2018-12-31T04:04:13.370Z,1.3
2018-12-31T04:05:13.231Z,1.4
2018-12-31T04:06:13.431Z,1.3
2018-12-31T04:07:13.206Z,1.4
2018-12-31T04:08:12.987Z,1.3
2018-12-31T04:09:13.187Z,1.4
2018-12-31T04:10:12.990Z,1.4
2018-12-31T04:11:13.376Z,1.5
2018-12-31T04:12:13.167Z,1.3
2018-12-31T04:13:12.978Z,1.3
2018-12-31T04:14:13.175Z,1.4
2018-12-31T04:15:13.019Z,1.4
2018-12-31T04:16:13.406Z,1.3
2018-12-31T04:17:12.999Z,1.4
2018-12-31T04:18:13.200Z,1.3
2018-12-31T04:19:13.007Z,1.5
2018-12-31T04:20:12.985Z,1.3
2018-12-31T04:21:13.154Z,1.4
2018-12-31T04:22:12.957Z,1.4
2018-12-31T04:23:13.144Z,1.4
2018-12-31T04:24:13.159Z,1.3
2018-12-31T04:25:12.971Z,1.4
2018-12-31T04:26:13.228Z,1.3
2018-12-31T04:27:13.175Z,1.3
2018-12-31T04:28:13.427Z,1.3
2018-12-31T04:29:13.173Z,1.3
2018-12-31T04:30:13.235Z,1.2
2018-12-31T04:31:13.425Z,1.3
2018-12-31T04:32:13.195Z,1.4
2018-12-31T04:33:13.114Z,1.2
2018-12-31T04:34:13.226Z,1.4
2018-12-31T04:35:13.246Z,1.3
2018-12-31T04:36:13.008Z,1.2
2018-12-31T04:37:13.187Z,1.3
2018-12-31T04:38:13.291Z,1.3
2018-12-31T04:39:13.290Z,1.2
2018-12-31T04:40:13.514Z,1.2
2018-12-31T04:41:13.265Z,1.2
2018-12-31T04:42:13.440Z,1.3
2018-12-31T04:43:13.511Z,1.1
2018-12-31T04:44:13.267Z,1.1
2018-12-31T04:45:13.310Z,1.3
2018-12-31T04:46:13.366Z,1.1
2018-12-31T04:47:13.311Z,1.2
2018-12-31T04:48:13.316Z,1.1
2018-12-31T04:49:13.388Z,1.1
2018-12-31T04:50:13.253Z,1.3
2018-12-31T04:51:13.001Z,1.3
2018-12-31T04:52:13.256Z,1.2
2018-12-31T04:53:13.216Z,1.2
2018-12-31T04:54:13.364Z,1.1
2018-12-31T04:55:13.475Z,1.2
2018-12-31T04:56:13.122Z,1.1
2018-12-31T04:57:13.027Z,1.1
2018-12-31T04:58:13.220Z,1.0
2018-12-31T04:59:13.285Z,1.2
2018-12-31T05:00:13.065Z,1.1
2018-12-31T05:01:13.078Z,1.1
2018-12-31T05:02:13.236Z,1.0
2018-12-31T05:03:13.081Z,1.0
2018-12-31T05:04:13.285Z,1.2
2018-12-31T05:05:13.280Z,1.1
2018-12-31T05:06:13.330Z,1.0
2018-12-31T05:07:13.259Z,1.1
2018-12-31T05:08:13.264Z,1.2
2018-12-31T05:09:13.241Z,0.9
2018-12-31T05:10:13.081Z,1.1
2018-12-31T05:11:13.447Z,1.2
2018-12-31T05:12:13.274Z,1.0
2018-12-31T05:13:13.506Z,1.0
2018-12-31T05:14:13.117Z,1.0
2018-12-31T05:15:13.296Z,1.1
2018-12-31T05:16:13.062Z,0.9
2018-12-31T05:17:13.377Z,1.0
2018-12-31T05:18:13.263Z,1.0
2018-12-31T05:19:13.319Z,0.9
2018-12-31T05:20:13.260Z,1.0
2018-12-31T05:21:13.149Z,1.0
2018-12-31T05:22:13.313Z,1.0
2018-12-31T05:23:13.533Z,1.0
2018-12-31T05:24:13.335Z,1.0
2018-12-31T05:25:13.425Z,1.1
2018-12-31T05:26:13.102Z,1.1
2018-12-31T05:27:13.308Z,1.0
2018-12-31T05:28:13.286Z,1.0
2018-12-31T05:29:13.273Z,0.9
2018-12-31T05:30:13.183Z,1.0
2018-12-31T05:31:13.107Z,1.0
2018-12-31T05:32:13.361Z,1.0
2018-12-31T05:33:13.316Z,1.1
2018-12-31T05:34:13.366Z,0.9
2018-12-31T05:35:13.629Z,1.0
2018-12-31T05:36:13.291Z,0.9
2018-12-31T05:37:13.097Z,0.9
2018-12-31T05:38:13.255Z,1.0
2018-12-31T05:39:13.105Z,0.9
2018-12-31T05:40:13.318Z,0.9
2018-12-31T05:41:13.284Z,1.0
2018-12-31T05:42:13.338Z,0.9
2018-12-31T05:43:13.586Z,1.1
2018-12-31T05:44:13.199Z,1.0
2018-12-31T05:45:13.322Z,0.9
2018-12-31T05:46:13.359Z,0.9
2018-12-31T05:47:13.225Z,0.9
2018-12-31T05:48:13.600Z,0.9
2018-12-31T05:49:13.358Z,1.0
2018-12-31T05:50:13.180Z,1.0
2018-12-31T05:51:13.361Z,1.1
2018-12-31T05:52:13.584Z,0.9
2018-12-31T05:53:13.161Z,1.0
2018-12-31T05:54:13.624Z,0.9
2018-12-31T05:55:13.608Z,0.9
2018-12-31T05:56:13.364Z,0.9
2018-12-31T05:57:13.576Z,1.0
2018-12-31T05:58:13.377Z,0.8
2018-12-31T05:59:13.591Z,1.0
2018-12-31T06:00:13.467Z,1.0
2018-12-31T06:01:13.383Z,0.9
2018-12-31T06:02:13.611Z,0.8
2018-12-31T06:03:13.410Z,0.8
2018-12-31T06:04:13.610Z,0.9
2018-12-31T06:05:13.166Z,0.9
2018-12-31T06:06:13.174Z,0.9
2018-12-31T06:07:13.611Z,0.9
2018-12-31T06:08:13.155Z,0.9
2018-12-31T06:09:13.178Z,0.9
2018-12-31T06:10:13.672Z,1.0
2018-12-31T06:11:13.680Z,0.9
2018-12-31T06:12:13.417Z,0.9
2018-12-31T06:13:13.385Z,0.9
2018-12-31T06:14:13.659Z,0.9
2018-12-31T06:15:13.215Z,0.8
2018-12-31T06:16:13.417Z,0.8
2018-12-31T06:17:13.427Z,0.8
2018-12-31T06:18:13.189Z,0.8
2018-12-31T06:19:13.583Z,0.7
2018-12-31T06:20:13.661Z,0.7
2018-12-31T06:21:13.382Z,0.8
2018-12-31T06:22:13.390Z,0.8
2018-12-31T06:23:13.150Z,0.8
2018-12-31T06:24:13.421Z,0.9
2018-12-31T06:25:13.483Z,0.9
2018-12-31T06:26:13.180Z,0.8
2018-12-31T06:27:13.373Z,0.9
2018-12-31T06:28:13.406Z,0.8
2018-12-31T06:29:13.660Z,0.8
2018-12-31T06:30:13.684Z,0.9
2018-12-31T06:31:13.686Z,0.8
2018-12-31T06:32:13.697Z,0.9
2018-12-31T06:33:13.501Z,0.8
2018-12-31T06:34:13.652Z,0.8
2018-12-31T06:35:13.598Z,0.7
2018-12-31T06:36:13.554Z,0.8
2018-12-31T06:37:13.518Z,0.8
2018-12-31T06:38:13.672Z,0.8
2018-12-31T06:39:13.457Z,0.7
2018-12-31T06:40:13.653Z,0.7
2018-12-31T06:41:13.712Z,0.8
2018-12-31T06:42:13.683Z,0.8
2018-12-31T06:43:13.689Z,0.9
2018-12-31T06:44:13.451Z,0.7
2018-12-31T06:45:13.641Z,0.8
2018-12-31T06:46:13.299Z,0.8
2018-12-31T06:47:13.289Z,0.9
2018-12-31T06:48:13.229Z,0.8
2018-12-31T06:49:13.297Z,0.9
2018-12-31T06:50:13.289Z,0.8
2018-12-31T06:51:14.121Z,0.8
2018-12-31T06:52:13.734Z,0.8
2018-12-31T06:53:13.517Z,0.9
2018-12-31T06:54:13.809Z,0.8
2018-12-31T06:55:13.564Z,0.9
2018-12-31T06:56:13.543Z,0.7
2018-12-31T06:57:13.524Z,0.9
2018-12-31T06:58:13.494Z,0.9
2018-12-31T06:59:13.325Z,0.8
2018-12-31T07:00:13.295Z,0.9
2018-12-31T07:01:13.411Z,0.9
2018-12-31T07:02:13.558Z,0.8
2018-12-31T07:03:13.332Z,0.9
2018-12-31T07:04:13.725Z,0.8
2018-12-31T07:05:13.533Z,0.9
2018-12-31T07:06:13.733Z,0.9
2018-12-31T07:07:13.771Z,0.9
2018-12-31T07:08:13.797Z,0.9
2018-12-31T07:09:13.570Z,0.7
2018-12-31T07:10:13.337Z,0.9
2018-12-31T07:11:13.359Z,0.8
2018-12-31T07:12:13.490Z,0.8
2018-12-31T07:13:13.567Z,0.8
2018-12-31T07:14:13.518Z,0.8
2018-12-31T07:15:13.487Z,1.0
2018-12-31T07:16:13.907Z,0.7
2018-12-31T07:17:13.749Z,0.8
2018-12-31T07:18:13.900Z,0.7
2018-12-31T07:19:13.392Z,0.8
2018-12-31T07:20:13.658Z,0.8
2018-12-31T07:21:13.524Z,0.8
2018-12-31T07:22:13.343Z,0.9
2018-12-31T07:23:13.754Z,0.8
2018-12-31T07:24:13.511Z,0.7
2018-12-31T07:25:13.344Z,0.8
2018-12-31T07:26:13.629Z,0.7
2018-12-31T07:27:13.630Z,0.7
2018-12-31T07:28:13.832Z,0.8
2018-12-31T07:29:13.355Z,0.8
2018-12-31T07:30:13.834Z,0.7
2018-12-31T07:31:13.616Z,0.7
2018-12-31T07:32:13.414Z,0.8
2018-12-31T07:33:13.549Z,0.8
2018-12-31T07:34:13.797Z,0.8
2018-12-31T07:35:13.588Z,0.8
2018-12-31T07:36:13.526Z,0.8
2018-12-31T07:37:13.318Z,0.7
2018-12-31T07:38:13.787Z,0.8
2018-12-31T07:39:13.744Z,0.7
2018-12-31T07:40:13.763Z,0.8
2018-12-31T07:41:13.339Z,0.7
2018-12-31T07:42:13.816Z,0.6
2018-12-31T07:43:13.364Z,0.8
2018-12-31T07:44:13.365Z,0.8
2018-12-31T07:45:13.568Z,0.7
2018-12-31T07:46:13.401Z,0.8
2018-12-31T07:47:13.577Z,0.8
2018-12-31T07:48:13.547Z,0.7
2018-12-31T07:49:13.382Z,0.7
2018-12-31T07:50:13.844Z,0.7
2018-12-31T07:51:13.370Z,0.7
2018-12-31T07:52:13.629Z,0.8
2018-12-31T07:53:13.613Z,0.7
2018-12-31T07:54:13.633Z,0.8
2018-12-31T07:55:13.406Z,0.9
2018-12-31T07:56:13.905Z,0.8
2018-12-31T07:57:13.601Z,0.6
2018-12-31T07:58:13.396Z,0.6
2018-12-31T07:59:14.051Z,0.7
2018-12-31T08:00:13.575Z,0.6
2018-12-31T08:01:13.551Z,0.7
2018-12-31T08:02:13.609Z,0.6
2018-12-31T08:03:13.773Z,0.7
2018-12-31T08:04:13.389Z,0.7
2018-12-31T08:05:13.827Z,0.7
2018-12-31T08:06:13.742Z,0.7
2018-12-31T08:07:13.789Z,0.7
2018-12-31T08:08:13.805Z,0.7
2018-12-31T08:09:13.570Z,0.7
2018-12-31T08:10:13.369Z,0.5
2018-12-31T08:11:13.740Z,0.8
2018-12-31T08:12:14.100Z,0.6
2018-12-31T08:13:13.686Z,0.7
2018-12-31T08:14:13.409Z,0.8
2018-12-31T08:15:15.046Z,0.6
2018-12-31T08:16:13.614Z,0.6
2018-12-31T08:17:13.697Z,0.6
2018-12-31T08:18:13.514Z,0.7
2018-12-31T08:19:13.868Z,0.7
2018-12-31T08:20:13.692Z,0.6
2018-12-31T08:21:13.483Z,0.8
2018-12-31T08:22:13.711Z,0.6
2018-12-31T08:23:13.702Z,0.7
2018-12-31T08:24:13.444Z,0.6
2018-12-31T08:25:13.959Z,0.8
2018-12-31T08:26:13.720Z,0.6
2018-12-31T08:27:13.740Z,0.7
2018-12-31T08:28:13.531Z,0.6
2018-12-31T08:29:13.713Z,0.6
2018-12-31T08:30:13.665Z,0.6
2018-12-31T08:31:14.270Z,0.7
2018-12-31T08:32:13.674Z,0.7
2018-12-31T08:33:13.463Z,0.6
2018-12-31T08:34:13.657Z,0.7
2018-12-31T08:35:13.510Z,0.5
2018-12-31T08:36:13.871Z,0.6
2018-12-31T08:37:13.766Z,0.7
2018-12-31T08:38:13.788Z,0.7
2018-12-31T08:39:13.803Z,0.6
2018-12-31T08:40:13.706Z,0.5
2018-12-31T08:41:15.279Z,0.7
2018-12-31T08:42:13.633Z,0.6
2018-12-31T08:43:13.984Z,0.6
2018-12-31T08:44:14.029Z,0.7
2018-12-31T08:45:13.470Z,0.6
2018-12-31T08:46:13.719Z,0.6
2018-12-31T08:47:13.874Z,0.7
2018-12-31T08:48:13.516Z,0.7
2018-12-31T08:49:14.105Z,0.6
2018-12-31T08:50:15.596Z,0.6
2018-12-31T08:51:14.246Z,0.7
2018-12-31T08:52:13.639Z,0.5
2018-12-31T08:53:13.947Z,0.6
2018-12-31T08:54:13.690Z,0.6
2018-12-31T08:55:13.764Z,0.7
2018-12-31T08:56:13.695Z,0.6
2018-12-31T08:57:13.639Z,0.6
2018-12-31T08:58:13.723Z,0.6
2018-12-31T08:59:13.945Z,0.7
2018-12-31T09:00:13.491Z,0.6
2018-12-31T09:01:13.475Z,0.7
2018-12-31T09:02:13.981Z,0.6
2018-12-31T09:03:13.532Z,0.5
2018-12-31T09:04:13.769Z,0.6
2018-12-31T09:05:13.939Z,0.6
2018-12-31T09:06:13.739Z,0.7
2018-12-31T09:07:13.727Z,0.5
2018-12-31T09:08:13.963Z,0.6
2018-12-31T09:09:13.490Z,0.6
2018-12-31T09:10:13.764Z,0.7
2018-12-31T09:11:13.892Z,0.6
2018-12-31T09:12:13.602Z,0.6
2018-12-31T09:13:13.569Z,0.7
2018-12-31T09:14:13.690Z,0.6
2018-12-31T09:15:14.716Z,0.6
2018-12-31T09:16:13.733Z,0.7
2018-12-31T09:17:13.677Z,0.7
2018-12-31T09:18:13.815Z,0.7
2018-12-31T09:19:13.981Z,0.7
2018-12-31T09:20:13.563Z,0.6
2018-12-31T09:21:13.620Z,0.6
2018-12-31T09:22:15.078Z,0.7
2018-12-31T09:23:13.990Z,0.8
2018-12-31T09:24:13.590Z,0.7
2018-12-31T09:25:13.537Z,0.9
2018-12-31T09:26:13.769Z,0.6
2018-12-31T09:27:13.541Z,0.7
2018-12-31T09:28:13.583Z,0.7
2018-12-31T09:29:13.547Z,0.6
2018-12-31T09:30:13.758Z,0.6
2018-12-31T09:31:13.727Z,0.7
2018-12-31T09:32:13.767Z,0.6
2018-12-31T09:33:13.985Z,0.7
2018-12-31T09:34:14.158Z,0.7
2018-12-31T09:35:13.887Z,0.7
2018-12-31T09:36:13.835Z,0.7
2018-12-31T09:37:13.715Z,0.7
2018-12-31T09:38:13.552Z,0.7
2018-12-31T09:39:13.927Z,0.7
2018-12-31T09:40:13.897Z,0.6
2018-12-31T09:41:13.827Z,0.8
2018-12-31T09:42:13.653Z,0.7
2018-12-31T09:43:13.617Z,0.8
2018-12-31T09:44:13.815Z,0.7
2018-12-31T09:45:13.822Z,0.6
2018-12-31T09:46:13.819Z,0.7
2018-12-31T09:47:13.640Z,0.7
2018-12-31T09:48:13.847Z,0.7
2018-12-31T09:49:13.810Z,0.6
2018-12-31T09:50:13.763Z,0.7
2018-12-31T09:51:13.819Z,0.7
2018-12-31T09:52:13.993Z,0.7
2018-12-31T09:53:13.846Z,0.6
2018-12-31T09:54:13.801Z,0.7
2018-12-31T09:55:13.846Z,0.7
2018-12-31T09:56:13.838Z,0.7
2018-12-31T09:57:13.865Z,0.8
2018-12-31T09:58:14.225Z,0.7
2018-12-31T09:59:13.840Z,0.6
2018-12-31T10:00:14.012Z,0.8
2018-12-31T10:01:14.039Z,0.7
2018-12-31T10:02:13.781Z,0.7
2018-12-31T10:03:13.586Z,0.6
2018-12-31T10:04:13.890Z,0.6
2018-12-31T10:05:13.795Z,0.7
2018-12-31T10:06:14.453Z,0.6
2018-12-31T10:07:13.639Z,0.8
2018-12-31T10:08:14.145Z,0.7
2018-12-31T10:09:13.890Z,0.7
2018-12-31T10:10:14.189Z,0.7
2018-12-31T10:11:14.555Z,0.7
2018-12-31T10:12:13.900Z,0.7
2018-12-31T10:13:13.904Z,0.7
2018-12-31T10:14:14.050Z,0.7
2018-12-31T10:15:13.796Z,0.7
2018-12-31T10:16:13.777Z,0.8
2018-12-31T10:17:13.901Z,0.7
2018-12-31T10:18:14.085Z,0.8
2018-12-31T10:19:14.058Z,0.7
2018-12-31T10:20:14.160Z,0.7
2018-12-31T10:21:14.069Z,0.7
2018-12-31T10:22:13.909Z,0.7
2018-12-31T10:23:14.393Z,0.7
2018-12-31T10:24:13.754Z,0.7
2018-12-31T10:25:13.953Z,0.7
2018-12-31T10:26:14.128Z,0.7
2018-12-31T10:27:14.108Z,0.7
2018-12-31T10:28:13.660Z,0.7
2018-12-31T10:29:13.916Z,0.6
2018-12-31T10:30:13.879Z,0.6
2018-12-31T10:31:14.160Z,0.6
2018-12-31T10:32:14.254Z,0.7
2018-12-31T10:33:13.853Z,0.7
2018-12-31T10:34:13.838Z,0.7
2018-12-31T10:35:13.684Z,0.6
2018-12-31T10:36:13.940Z,0.7
2018-12-31T10:37:13.718Z,0.7
2018-12-31T10:38:13.891Z,0.7
2018-12-31T10:39:14.514Z,0.6
2018-12-31T10:40:14.713Z,0.6
2018-12-31T10:41:13.854Z,0.6
2018-12-31T10:42:13.680Z,0.6
2018-12-31T10:43:14.161Z,0.7
2018-12-31T10:44:14.237Z,0.7
2018-12-31T10:45:13.714Z,0.7
2018-12-31T10:46:13.951Z,0.7
2018-12-31T10:47:14.139Z,0.7
2018-12-31T10:48:13.894Z,0.6
2018-12-31T10:49:14.211Z,0.7
2018-12-31T10:50:14.017Z,0.6
2018-12-31T10:51:13.670Z,0.7
2018-12-31T10:52:13.964Z,0.7
2018-12-31T10:53:14.262Z,0.7
2018-12-31T10:54:13.875Z,0.7
2018-12-31T10:55:13.907Z,0.8
2018-12-31T10:56:14.140Z,0.6
2018-12-31T10:57:14.019Z,0.7
2018-12-31T10:58:13.834Z,0.6
2018-12-31T10:59:14.093Z,0.6
2018-12-31T11:00:16.168Z,0.7
2018-12-31T11:01:14.562Z,0.7
2018-12-31T11:02:13.976Z,0.7
2018-12-31T11:03:15.346Z,0.6
2018-12-31T11:04:16.617Z,0.7
2018-12-31T11:05:13.821Z,0.7
2018-12-31T11:06:14.124Z,0.8
2018-12-31T11:07:14.769Z,0.6
2018-12-31T11:08:14.454Z,0.8
2018-12-31T11:09:16.046Z,0.7
2018-12-31T11:10:14.914Z,0.8
2018-12-31T11:11:14.023Z,0.7
2018-12-31T11:12:14.448Z,0.7
2018-12-31T11:13:15.419Z,0.6
2018-12-31T11:14:15.819Z,0.7
2018-12-31T11:15:14.788Z,0.6
2018-12-31T11:16:13.933Z,0.8
2018-12-31T11:17:13.899Z,0.8
2018-12-31T11:18:14.602Z,0.7
2018-12-31T11:19:15.144Z,0.8
2018-12-31T11:20:14.217Z,0.7
2018-12-31T11:21:14.059Z,0.8
2018-12-31T11:22:15.674Z,0.8
2018-12-31T11:23:14.687Z,0.8
2018-12-31T11:24:14.078Z,0.7
2018-12-31T11:25:14.478Z,0.8
2018-12-31T11:26:14.685Z,0.7
2018-12-31T11:27:14.454Z,0.7
2018-12-31T11:28:14.811Z,0.8
2018-12-31T11:29:14.016Z,1.0
2018-12-31T11:30:14.064Z,0.9
2018-12-31T11:31:14.026Z,0.9
2018-12-31T11:32:13.848Z,0.8
2018-12-31T11:33:17.501Z,0.8
2018-12-31T11:34:14.438Z,0.9
2018-12-31T11:35:14.114Z,0.9
2018-12-31T11:36:14.205Z,1.0
2018-12-31T11:37:16.546Z,1.0
2018-12-31T11:38:14.201Z,1.0
2018-12-31T11:39:15.346Z,1.0
2018-12-31T11:40:14.226Z,0.8
2018-12-31T11:41:14.616Z,1.0
2018-12-31T11:42:14.064Z,1.0
2018-12-31T11:43:14.132Z,0.9
2018-12-31T11:44:17.747Z,0.9
2018-12-31T11:45:15.736Z,0.9
2018-12-31T11:46:15.600Z,1.0
2018-12-31T11:47:14.809Z,1.1
2018-12-31T11:48:16.459Z,1.0
2018-12-31T11:49:14.606Z,1.1
2018-12-31T11:50:13.997Z,1.0
2018-12-31T11:51:18.020Z,1.2
2018-12-31T11:52:14.011Z,0.9
2018-12-31T11:53:15.530Z,0.9
2018-12-31T11:54:14.667Z,1.0
2018-12-31T11:55:14.054Z,1.0
2018-12-31T11:56:13.827Z,1.0
2018-12-31T11:57:20.144Z,0.9
2018-12-31T11:58:20.635Z,0.8
2018-12-31T11:59:15.153Z,1.0
2018-12-31T12:00:18.385Z,1.0
2018-12-31T12:01:13.892Z,0.9
2018-12-31T12:02:14.438Z,1.1
2018-12-31T12:03:14.116Z,1.0
2018-12-31T12:04:13.886Z,0.8
2018-12-31T12:05:13.883Z,0.9
2018-12-31T12:06:13.939Z,1.2
2018-12-31T12:07:14.099Z,1.0
2018-12-31T12:08:14.336Z,1.1
2018-12-31T12:09:15.780Z,0.9
2018-12-31T12:10:15.287Z,1.0
2018-12-31T12:11:22.248Z,0.9
2018-12-31T12:12:22.234Z,1.0
2018-12-31T12:13:17.315Z,1.0
2018-12-31T12:14:16.593Z,1.1
2018-12-31T12:15:14.378Z,1.0
2018-12-31T12:16:14.304Z,1.1
2018-12-31T12:17:13.982Z,1.0
2018-12-31T12:18:18.415Z,1.1
2018-12-31T12:19:18.078Z,1.1
2018-12-31T12:20:16.084Z,1.0
2018-12-31T12:21:16.221Z,1.2
2018-12-31T12:22:14.750Z,1.2
2018-12-31T12:23:18.245Z,1.2
2018-12-31T12:24:15.617Z,1.2
2018-12-31T12:25:14.148Z,1.3
2018-12-31T12:26:14.942Z,1.3
2018-12-31T12:27:14.238Z,1.3
2018-12-31T12:28:14.498Z,1.4
2018-12-31T12:29:14.163Z,1.2
2018-12-31T12:30:14.152Z,1.1
2018-12-31T12:31:14.004Z,1.2
2018-12-31T12:32:14.151Z,1.3
2018-12-31T12:33:14.116Z,1.2
2018-12-31T12:34:14.134Z,1.2
2018-12-31T12:35:13.950Z,1.2
2018-12-31T12:36:14.243Z,1.2
2018-12-31T12:37:14.203Z,1.3
2018-12-31T12:38:14.344Z,1.2
2018-12-31T12:39:14.239Z,1.2
2018-12-31T12:40:14.016Z,1.1
2018-12-31T12:41:14.357Z,1.2
2018-12-31T12:42:14.162Z,1.3
2018-12-31T12:43:14.216Z,1.3
2018-12-31T12:44:14.577Z,1.2
2018-12-31T12:45:14.143Z,1.2
2018-12-31T12:46:14.675Z,1.4
2018-12-31T12:47:15.343Z,1.2
2018-12-31T12:48:14.228Z,1.2
2018-12-31T12:49:15.649Z,1.4
2018-12-31T12:50:14.227Z,1.3
2018-12-31T12:51:14.444Z,1.4
2018-12-31T12:52:14.302Z,1.4
2018-12-31T12:53:15.146Z,1.3
2018-12-31T12:54:14.636Z,1.4
2018-12-31T12:55:14.428Z,1.6
2018-12-31T12:56:14.859Z,1.4
2018-12-31T12:57:15.175Z,1.4
2018-12-31T12:58:14.738Z,1.4
2018-12-31T12:59:14.435Z,1.6
2018-12-31T13:00:14.430Z,1.4
2018-12-31T13:01:14.317Z,1.6
2018-12-31T13:02:14.266Z,1.4
2018-12-31T13:03:14.226Z,1.4
2018-12-31T13:04:14.221Z,1.5
2018-12-31T13:05:14.568Z,1.6
2018-12-31T13:06:14.373Z,1.6
2018-12-31T13:07:15.784Z,1.4
2018-12-31T13:08:14.144Z,1.4
2018-12-31T13:09:13.987Z,1.4
2018-12-31T13:10:14.195Z,1.5
2018-12-31T13:11:15.960Z,1.4
2018-12-31T13:12:14.222Z,1.8
2018-12-31T13:13:14.072Z,1.6
2018-12-31T13:14:14.411Z,1.5
2018-12-31T13:15:15.369Z,1.4
2018-12-31T13:16:19.447Z,1.4
2018-12-31T13:17:15.833Z,1.5
2018-12-31T13:18:14.189Z,1.5
2018-12-31T13:19:13.987Z,1.5
2018-12-31T13:20:14.258Z,1.5
2018-12-31T13:21:14.521Z,1.6
2018-12-31T13:22:28.524Z,1.6
2018-12-31T13:23:14.853Z,1.5
2018-12-31T13:24:14.976Z,1.4
2018-12-31T13:25:16.288Z,1.6
2018-12-31T13:26:14.537Z,1.3
2018-12-31T13:27:13.944Z,1.6
2018-12-31T13:28:14.994Z,1.4
2018-12-31T13:29:16.683Z,1.6
2018-12-31T13:30:14.288Z,1.5
2018-12-31T13:31:14.634Z,1.6
2018-12-31T13:32:14.988Z,1.5
2018-12-31T13:33:14.152Z,1.6
2018-12-31T13:34:14.543Z,1.5
2018-12-31T13:35:17.113Z,1.4
2018-12-31T13:36:15.945Z,1.4
2018-12-31T13:37:28.425Z,1.5
2018-12-31T13:38:17.171Z,1.5
2018-12-31T13:39:14.247Z,1.5
2018-12-31T13:40:14.314Z,1.4
2018-12-31T13:42:22.771Z,1.4
2018-12-31T13:42:34.881Z,1.5
2018-12-31T13:43:33.127Z,1.4
2018-12-31T13:44:38.187Z,1.4
2018-12-31T13:45:32.140Z,1.4
2018-12-31T13:46:32.401Z,1.5